Search for airport 
image banner adimage banner ad
image banner ad

SSFC - Safra

Located in Dom Pedrito, Brazil

ICAO - , IATA -

Data provided by Airmate  

General information

Coordinates: S31°1'21" W54°37'18"
Elevation is 442 feet MSL.
Magnetic variation is -14° East
Rated:
View ratings: [VIEW]


View others Airports in Rio Grande do Sul

Operational data

Open for public use
Current time UTC:
Current local time:
Weather at : SBBG - Comandante Gustavo Kraemer ( 64 km )
METAR: SBBG 032001Z AUTO 05005KT CAVOK 26/13 Q1023
TAF: TAF SBBG 031500Z 0318/0418 02008KT CAVOK TX25/0318Z TN12/0408Z RMK PEU
View NOTAMs / SUP AIP / TFR affecting this airport [VIEW]
Communications frequencies: [VIEW]

Runways:

RWY identifierQFULength (ft)Width (ft)SurfaceLDA (ft)
02328059GRASS
20328059GRASS

Airport contact information

Address: Dom Pedrito Brazil

Satellite view of SSFC